sensor_id;sensor_type;location;lat;lon;timestamp;temperature;humidity
75190;HTU21D;69198;44.694;37.790;2023-12-20T00:00:42;11.26;86.87
75190;HTU21D;69198;44.694;37.790;2023-12-20T00:01:43;11.27;86.85
75190;HTU21D;69198;44.694;37.790;2023-12-20T00:02:44;11.29;86.79
75190;HTU21D;69198;44.694;37.790;2023-12-20T00:03:47;11.30;86.79
75190;HTU21D;69198;44.694;37.790;2023-12-20T00:04:48;11.33;86.76
75190;HTU21D;69198;44.694;37.790;2023-12-20T00:05:50;11.36;86.67
75190;HTU21D;69198;44.694;37.790;2023-12-20T00:06:51;11.36;86.62
75190;HTU21D;69198;44.694;37.790;2023-12-20T00:07:53;11.38;86.58
75190;HTU21D;69198;44.694;37.790;2023-12-20T00:08:53;11.38;86.50
75190;HTU21D;69198;44.694;37.790;2023-12-20T00:09:54;11.40;86.46
75190;HTU21D;69198;44.694;37.790;2023-12-20T00:10:55;11.42;86.37
75190;HTU21D;69198;44.694;37.790;2023-12-20T00:11:56;11.45;86.22
75190;HTU21D;69198;44.694;37.790;2023-12-20T00:12:57;11.47;86.11
75190;HTU21D;69198;44.694;37.790;2023-12-20T00:13:58;11.47;86.00
75190;HTU21D;69198;44.694;37.790;2023-12-20T00:14:59;11.49;85.88
75190;HTU21D;69198;44.694;37.790;2023-12-20T00:16:01;11.54;85.74
75190;HTU21D;69198;44.694;37.790;2023-12-20T00:17:02;11.56;85.61
75190;HTU21D;69198;44.694;37.790;2023-12-20T00:18:03;11.57;85.50
75190;HTU21D;69198;44.694;37.790;2023-12-20T00:19:04;11.59;85.38
75190;HTU21D;69198;44.694;37.790;2023-12-20T00:20:06;11.61;85.30
75190;HTU21D;69198;44.694;37.790;2023-12-20T00:21:07;11.63;85.23
75190;HTU21D;69198;44.694;37.790;2023-12-20T00:22:08;11.61;85.22
75190;HTU21D;69198;44.694;37.790;2023-12-20T00:23:09;11.64;85.19
75190;HTU21D;69198;44.694;37.790;2023-12-20T00:24:10;11.64;85.17
75190;HTU21D;69198;44.694;37.790;2023-12-20T00:25:11;11.66;85.15
75190;HTU21D;69198;44.694;37.790;2023-12-20T00:26:12;11.68;85.12
75190;HTU21D;69198;44.694;37.790;2023-12-20T00:27:13;11.67;85.11
75190;HTU21D;69198;44.694;37.790;2023-12-20T00:28:14;11.69;85.08
75190;HTU21D;69198;44.694;37.790;2023-12-20T00:29:15;11.71;85.06
75190;HTU21D;69198;44.694;37.790;2023-12-20T00:30:16;11.72;85.05
75190;HTU21D;69198;44.694;37.790;2023-12-20T00:31:17;11.71;85.05
75190;HTU21D;69198;44.694;37.790;2023-12-20T00:32:18;11.71;85.00
75190;HTU21D;69198;44.694;37.790;2023-12-20T00:33:20;11.72;84.95
75190;HTU21D;69198;44.694;37.790;2023-12-20T00:34:21;11.73;84.92
75190;HTU21D;69198;44.694;37.790;2023-12-20T00:35:22;11.74;84.89
75190;HTU21D;69198;44.694;37.790;2023-12-20T00:36:23;11.74;84.84
75190;HTU21D;69198;44.694;37.790;2023-12-20T00:37:24;11.74;84.79
75190;HTU21D;69198;44.694;37.790;2023-12-20T00:38:25;11.73;84.74
75190;HTU21D;69198;44.694;37.790;2023-12-20T00:39:26;11.73;84.77
75190;HTU21D;69198;44.694;37.790;2023-12-20T00:40:27;11.72;84.74
75190;HTU21D;69198;44.694;37.790;2023-12-20T00:41:28;11.71;84.73
75190;HTU21D;69198;44.694;37.790;2023-12-20T00:42:29;11.71;84.67
75190;HTU21D;69198;44.694;37.790;2023-12-20T00:43:30;11.71;84.64
75190;HTU21D;69198;44.694;37.790;2023-12-20T00:44:31;11.73;84.62
75190;HTU21D;69198;44.694;37.790;2023-12-20T00:45:33;11.72;84.61
75190;HTU21D;69198;44.694;37.790;2023-12-20T00:46:34;11.72;84.60
75190;HTU21D;69198;44.694;37.790;2023-12-20T00:47:35;11.73;84.55
75190;HTU21D;69198;44.694;37.790;2023-12-20T00:48:36;11.74;84.54
75190;HTU21D;69198;44.694;37.790;2023-12-20T00:49:37;11.74;84.52
75190;HTU21D;69198;44.694;37.790;2023-12-20T00:50:38;11.74;84.46
75190;HTU21D;69198;44.694;37.790;2023-12-20T00:51:39;11.74;84.40
75190;HTU21D;69198;44.694;37.790;2023-12-20T00:52:40;11.74;84.39
75190;HTU21D;69198;44.694;37.790;2023-12-20T00:53:41;11.76;84.33
75190;HTU21D;69198;44.694;37.790;2023-12-20T00:54:43;11.75;84.26
75190;HTU21D;69198;44.694;37.790;2023-12-20T00:55:45;11.76;84.18
75190;HTU21D;69198;44.694;37.790;2023-12-20T00:56:46;11.77;84.13
75190;HTU21D;69198;44.694;37.790;2023-12-20T00:57:47;11.77;84.04
75190;HTU21D;69198;44.694;37.790;2023-12-20T00:58:48;11.78;83.99
75190;HTU21D;69198;44.694;37.790;2023-12-20T00:59:49;11.77;83.96
75190;HTU21D;69198;44.694;37.790;2023-12-20T01:00:50;11.78;83.90
75190;HTU21D;69198;44.694;37.790;2023-12-20T01:01:51;11.78;83.88
75190;HTU21D;69198;44.694;37.790;2023-12-20T01:02:52;11.78;83.88
75190;HTU21D;69198;44.694;37.790;2023-12-20T01:03:53;11.78;83.89
75190;HTU21D;69198;44.694;37.790;2023-12-20T01:04:54;11.78;83.90
75190;HTU21D;69198;44.694;37.790;2023-12-20T01:05:55;11.77;83.86
75190;HTU21D;69198;44.694;37.790;2023-12-20T01:06:57;11.77;83.78
75190;HTU21D;69198;44.694;37.790;2023-12-20T01:07:58;11.79;83.74
75190;HTU21D;69198;44.694;37.790;2023-12-20T01:08:59;11.76;83.77
75190;HTU21D;69198;44.694;37.790;2023-12-20T01:10:00;11.74;83.79
75190;HTU21D;69198;44.694;37.790;2023-12-20T01:11:04;11.76;83.76
75190;HTU21D;69198;44.694;37.790;2023-12-20T01:12:05;11.75;83.75
75190;HTU21D;69198;44.694;37.790;2023-12-20T01:13:06;11.74;83.76
75190;HTU21D;69198;44.694;37.790;2023-12-20T01:14:09;11.73;83.79
75190;HTU21D;69198;44.694;37.790;2023-12-20T01:15:10;11.69;83.91
75190;HTU21D;69198;44.694;37.790;2023-12-20T01:16:12;11.66;84.01
75190;HTU21D;69198;44.694;37.790;2023-12-20T01:17:13;11.63;84.09
75190;HTU21D;69198;44.694;37.790;2023-12-20T01:18:14;11.61;84.18
75190;HTU21D;69198;44.694;37.790;2023-12-20T01:19:15;11.59;84.26
75190;HTU21D;69198;44.694;37.790;2023-12-20T01:20:17;11.57;84.35
75190;HTU21D;69198;44.694;37.790;2023-12-20T01:21:18;11.58;84.36
75190;HTU21D;69198;44.694;37.790;2023-12-20T01:22:19;11.56;84.42
75190;HTU21D;69198;44.694;37.790;2023-12-20T01:23:20;11.57;84.45
75190;HTU21D;69198;44.694;37.790;2023-12-20T01:24:21;11.56;84.52
75190;HTU21D;69198;44.694;37.790;2023-12-20T01:25:22;11.56;84.53
75190;HTU21D;69198;44.694;37.790;2023-12-20T01:26:23;11.58;84.55
75190;HTU21D;69198;44.694;37.790;2023-12-20T01:27:24;11.60;84.53
75190;HTU21D;69198;44.694;37.790;2023-12-20T01:28:26;11.60;84.53
75190;HTU21D;69198;44.694;37.790;2023-12-20T01:29:27;11.59;84.52
75190;HTU21D;69198;44.694;37.790;2023-12-20T01:30:28;11.59;84.50
75190;HTU21D;69198;44.694;37.790;2023-12-20T01:31:29;11.61;84.48
75190;HTU21D;69198;44.694;37.790;2023-12-20T01:32:30;11.59;84.51
75190;HTU21D;69198;44.694;37.790;2023-12-20T01:33:31;11.60;84.46
75190;HTU21D;69198;44.694;37.790;2023-12-20T01:34:32;11.63;84.41
75190;HTU21D;69198;44.694;37.790;2023-12-20T01:35:33;11.66;84.35
75190;HTU21D;69198;44.694;37.790;2023-12-20T01:36:34;11.66;84.30
75190;HTU21D;69198;44.694;37.790;2023-12-20T01:37:35;11.68;84.26
75190;HTU21D;69198;44.694;37.790;2023-12-20T01:38:36;11.70;84.19
75190;HTU21D;69198;44.694;37.790;2023-12-20T01:39:37;11.72;84.15
75190;HTU21D;69198;44.694;37.790;2023-12-20T01:40:38;11.73;84.12
75190;HTU21D;69198;44.694;37.790;2023-12-20T01:41:40;11.71;84.09
75190;HTU21D;69198;44.694;37.790;2023-12-20T01:42:41;11.70;84.03
75190;HTU21D;69198;44.694;37.790;2023-12-20T01:43:42;11.68;84.09
75190;HTU21D;69198;44.694;37.790;2023-12-20T01:44:43;11.67;84.12
75190;HTU21D;69198;44.694;37.790;2023-12-20T01:45:44;11.62;84.24
75190;HTU21D;69198;44.694;37.790;2023-12-20T01:46:46;11.60;84.26
75190;HTU21D;69198;44.694;37.790;2023-12-20T01:47:48;11.56;84.35
75190;HTU21D;69198;44.694;37.790;2023-12-20T01:48:49;11.55;84.39
75190;HTU21D;69198;44.694;37.790;2023-12-20T01:49:50;11.52;84.42
75190;HTU21D;69198;44.694;37.790;2023-12-20T01:50:52;11.51;84.47
75190;HTU21D;69198;44.694;37.790;2023-12-20T01:51:53;11.49;84.48
75190;HTU21D;69198;44.694;37.790;2023-12-20T01:52:56;11.49;84.52
75190;HTU21D;69198;44.694;37.790;2023-12-20T01:54:00;11.51;84.48
75190;HTU21D;69198;44.694;37.790;2023-12-20T01:55:01;11.49;84.48
75190;HTU21D;69198;44.694;37.790;2023-12-20T01:56:05;11.48;84.48
75190;HTU21D;69198;44.694;37.790;2023-12-20T01:57:06;11.49;84.52
75190;HTU21D;69198;44.694;37.790;2023-12-20T01:58:09;11.49;84.49
75190;HTU21D;69198;44.694;37.790;2023-12-20T01:59:10;11.48;84.52
75190;HTU21D;69198;44.694;37.790;2023-12-20T02:00:12;11.51;84.40
75190;HTU21D;69198;44.694;37.790;2023-12-20T02:01:14;11.53;84.36
75190;HTU21D;69198;44.694;37.790;2023-12-20T02:02:15;11.54;84.31
75190;HTU21D;69198;44.694;37.790;2023-12-20T02:03:16;11.55;84.26
75190;HTU21D;69198;44.694;37.790;2023-12-20T02:04:19;11.57;84.19
75190;HTU21D;69198;44.694;37.790;2023-12-20T02:05:21;11.58;84.19
75190;HTU21D;69198;44.694;37.790;2023-12-20T02:06:23;11.59;84.16
75190;HTU21D;69198;44.694;37.790;2023-12-20T02:07:25;11.60;84.15
75190;HTU21D;69198;44.694;37.790;2023-12-20T02:08:27;11.62;84.12
75190;HTU21D;69198;44.694;37.790;2023-12-20T02:09:28;11.63;84.09
75190;HTU21D;69198;44.694;37.790;2023-12-20T02:10:29;11.64;84.10
75190;HTU21D;69198;44.694;37.790;2023-12-20T02:11:31;11.67;84.10
75190;HTU21D;69198;44.694;37.790;2023-12-20T02:12:32;11.67;84.07
75190;HTU21D;69198;44.694;37.790;2023-12-20T02:13:33;11.68;84.07
75190;HTU21D;69198;44.694;37.790;2023-12-20T02:14:34;11.68;84.05
75190;HTU21D;69198;44.694;37.790;2023-12-20T02:15:35;11.70;83.97
75190;HTU21D;69198;44.694;37.790;2023-12-20T02:16:38;11.71;83.94
75190;HTU21D;69198;44.694;37.790;2023-12-20T02:17:39;11.72;83.90
75190;HTU21D;69198;44.694;37.790;2023-12-20T02:18:42;11.73;83.84
75190;HTU21D;69198;44.694;37.790;2023-12-20T02:19:44;11.73;83.83
75190;HTU21D;69198;44.694;37.790;2023-12-20T02:20:45;11.75;83.76
75190;HTU21D;69198;44.694;37.790;2023-12-20T02:21:46;11.76;83.74
75190;HTU21D;69198;44.694;37.790;2023-12-20T02:22:48;11.75;83.72
75190;HTU21D;69198;44.694;37.790;2023-12-20T02:23:48;11.75;83.75
75190;HTU21D;69198;44.694;37.790;2023-12-20T02:24:50;11.76;83.71
75190;HTU21D;69198;44.694;37.790;2023-12-20T02:25:51;11.77;83.68
75190;HTU21D;69198;44.694;37.790;2023-12-20T02:26:52;11.77;83.65
75190;HTU21D;69198;44.694;37.790;2023-12-20T02:27:53;11.76;83.63
75190;HTU21D;69198;44.694;37.790;2023-12-20T02:28:54;11.78;83.54
75190;HTU21D;69198;44.694;37.790;2023-12-20T02:29:55;11.77;83.49
75190;HTU21D;69198;44.694;37.790;2023-12-20T02:30:57;11.79;83.39
75190;HTU21D;69198;44.694;37.790;2023-12-20T02:31:58;11.79;83.23
75190;HTU21D;69198;44.694;37.790;2023-12-20T02:33:03;11.82;83.08
75190;HTU21D;69198;44.694;37.790;2023-12-20T02:34:06;11.79;83.10
75190;HTU21D;69198;44.694;37.790;2023-12-20T02:35:07;11.81;83.00
75190;HTU21D;69198;44.694;37.790;2023-12-20T02:36:08;11.79;82.98
75190;HTU21D;69198;44.694;37.790;2023-12-20T02:37:09;11.79;82.99
75190;HTU21D;69198;44.694;37.790;2023-12-20T02:38:11;11.78;82.96
75190;HTU21D;69198;44.694;37.790;2023-12-20T02:39:12;11.81;82.84
75190;HTU21D;69198;44.694;37.790;2023-12-20T02:40:13;11.81;82.64
75190;HTU21D;69198;44.694;37.790;2023-12-20T02:41:14;11.82;82.55
75190;HTU21D;69198;44.694;37.790;2023-12-20T02:42:18;11.82;82.57
75190;HTU21D;69198;44.694;37.790;2023-12-20T02:43:19;11.83;82.52
75190;HTU21D;69198;44.694;37.790;2023-12-20T02:44:20;11.83;82.49
75190;HTU21D;69198;44.694;37.790;2023-12-20T02:45:21;11.81;82.39
75190;HTU21D;69198;44.694;37.790;2023-12-20T02:46:23;11.79;82.33
75190;HTU21D;69198;44.694;37.790;2023-12-20T02:47:24;11.77;82.29
75190;HTU21D;69198;44.694;37.790;2023-12-20T02:48:25;11.76;82.27
75190;HTU21D;69198;44.694;37.790;2023-12-20T02:49:26;11.74;82.27
75190;HTU21D;69198;44.694;37.790;2023-12-20T02:50:27;11.72;82.18
75190;HTU21D;69198;44.694;37.790;2023-12-20T02:51:28;11.71;82.07
75190;HTU21D;69198;44.694;37.790;2023-12-20T02:52:29;11.68;81.98
75190;HTU21D;69198;44.694;37.790;2023-12-20T02:53:30;11.68;81.84
75190;HTU21D;69198;44.694;37.790;2023-12-20T02:54:31;11.69;81.71
75190;HTU21D;69198;44.694;37.790;2023-12-20T02:55:32;11.68;81.72
75190;HTU21D;69198;44.694;37.790;2023-12-20T02:56:33;11.70;81.71
75190;HTU21D;69198;44.694;37.790;2023-12-20T02:57:35;11.70;81.72
75190;HTU21D;69198;44.694;37.790;2023-12-20T02:58:37;11.70;81.77
75190;HTU21D;69198;44.694;37.790;2023-12-20T02:59:38;11.72;81.78
75190;HTU21D;69198;44.694;37.790;2023-12-20T03:00:39;11.71;81.85
75190;HTU21D;69198;44.694;37.790;2023-12-20T03:01:46;11.75;81.88
75190;HTU21D;69198;44.694;37.790;2023-12-20T03:02:47;11.74;81.97
75190;HTU21D;69198;44.694;37.790;2023-12-20T03:03:48;11.76;82.04
75190;HTU21D;69198;44.694;37.790;2023-12-20T03:04:49;11.77;82.13
75190;HTU21D;69198;44.694;37.790;2023-12-20T03:05:51;11.77;82.20
75190;HTU21D;69198;44.694;37.790;2023-12-20T03:06:52;11.78;82.22
75190;HTU21D;69198;44.694;37.790;2023-12-20T03:07:53;11.81;82.26
75190;HTU21D;69198;44.694;37.790;2023-12-20T03:08:54;11.82;82.32
75190;HTU21D;69198;44.694;37.790;2023-12-20T03:09:56;11.83;82.39
75190;HTU21D;69198;44.694;37.790;2023-12-20T03:10:59;11.82;82.48
75190;HTU21D;69198;44.694;37.790;2023-12-20T03:12:00;11.83;82.58
75190;HTU21D;69198;44.694;37.790;2023-12-20T03:13:01;11.83;82.63
75190;HTU21D;69198;44.694;37.790;2023-12-20T03:14:02;11.84;82.69
75190;HTU21D;69198;44.694;37.790;2023-12-20T03:15:04;11.82;82.75
75190;HTU21D;69198;44.694;37.790;2023-12-20T03:16:09;11.82;82.84
75190;HTU21D;69198;44.694;37.790;2023-12-20T03:17:10;11.79;82.94
75190;HTU21D;69198;44.694;37.790;2023-12-20T03:18:12;11.81;83.04
75190;HTU21D;69198;44.694;37.790;2023-12-20T03:19:13;11.82;83.04
75190;HTU21D;69198;44.694;37.790;2023-12-20T03:20:14;11.82;83.07
75190;HTU21D;69198;44.694;37.790;2023-12-20T03:21:15;11.82;83.07
75190;HTU21D;69198;44.694;37.790;2023-12-20T03:22:16;11.82;83.06
75190;HTU21D;69198;44.694;37.790;2023-12-20T03:23:17;11.82;83.07
75190;HTU21D;69198;44.694;37.790;2023-12-20T03:24:18;11.79;83.09
75190;HTU21D;69198;44.694;37.790;2023-12-20T03:25:19;11.79;83.07
75190;HTU21D;69198;44.694;37.790;2023-12-20T03:26:20;11.82;83.04
75190;HTU21D;69198;44.694;37.790;2023-12-20T03:27:23;11.81;83.02
75190;HTU21D;69198;44.694;37.790;2023-12-20T03:28:24;11.83;82.99
75190;HTU21D;69198;44.694;37.790;2023-12-20T03:29:25;11.81;82.95
75190;HTU21D;69198;44.694;37.790;2023-12-20T03:30:26;11.79;82.94
75190;HTU21D;69198;44.694;37.790;2023-12-20T03:31:27;11.79;82.91
75190;HTU21D;69198;44.694;37.790;2023-12-20T03:32:28;11.79;82.90
75190;HTU21D;69198;44.694;37.790;2023-12-20T03:33:30;11.79;82.89
75190;HTU21D;69198;44.694;37.790;2023-12-20T03:34:31;11.78;82.90
75190;HTU21D;69198;44.694;37.790;2023-12-20T03:35:32;11.78;82.94
75190;HTU21D;69198;44.694;37.790;2023-12-20T03:36:33;11.78;82.97
75190;HTU21D;69198;44.694;37.790;2023-12-20T03:37:34;11.77;83.03
75190;HTU21D;69198;44.694;37.790;2023-12-20T03:38:35;11.77;83.06
75190;HTU21D;69198;44.694;37.790;2023-12-20T03:39:36;11.77;83.03
75190;HTU21D;69198;44.694;37.790;2023-12-20T03:40:37;11.76;83.02
75190;HTU21D;69198;44.694;37.790;2023-12-20T03:41:38;11.76;83.00
75190;HTU21D;69198;44.694;37.790;2023-12-20T03:42:39;11.74;82.94
75190;HTU21D;69198;44.694;37.790;2023-12-20T03:43:40;11.74;82.91
75190;HTU21D;69198;44.694;37.790;2023-12-20T03:44:41;11.74;82.82
75190;HTU21D;69198;44.694;37.790;2023-12-20T03:45:43;11.74;82.75
75190;HTU21D;69198;44.694;37.790;2023-12-20T03:46:44;11.73;82.72
75190;HTU21D;69198;44.694;37.790;2023-12-20T03:47:46;11.73;82.68
75190;HTU21D;69198;44.694;37.790;2023-12-20T03:48:47;11.73;82.65
75190;HTU21D;69198;44.694;37.790;2023-12-20T03:49:48;11.73;82.64
75190;HTU21D;69198;44.694;37.790;2023-12-20T03:50:49;11.72;82.63
75190;HTU21D;69198;44.694;37.790;2023-12-20T03:51:50;11.72;82.57
75190;HTU21D;69198;44.694;37.790;2023-12-20T03:52:51;11.73;82.53
75190;HTU21D;69198;44.694;37.790;2023-12-20T03:53:53;11.73;82.49
75190;HTU21D;69198;44.694;37.790;2023-12-20T03:54:54;11.71;82.47
75190;HTU21D;69198;44.694;37.790;2023-12-20T03:55:55;11.72;82.46
75190;HTU21D;69198;44.694;37.790;2023-12-20T03:56:56;11.71;82.46
75190;HTU21D;69198;44.694;37.790;2023-12-20T03:57:57;11.71;82.41
75190;HTU21D;69198;44.694;37.790;2023-12-20T03:58:58;11.70;82.28
75190;HTU21D;69198;44.694;37.790;2023-12-20T03:59:59;11.68;82.19
75190;HTU21D;69198;44.694;37.790;2023-12-20T04:01:00;11.71;82.05
75190;HTU21D;69198;44.694;37.790;2023-12-20T04:02:02;11.70;81.96
75190;HTU21D;69198;44.694;37.790;2023-12-20T04:03:03;11.71;81.92
75190;HTU21D;69198;44.694;37.790;2023-12-20T04:04:04;11.71;81.91
75190;HTU21D;69198;44.694;37.790;2023-12-20T04:05:06;11.72;81.92
75190;HTU21D;69198;44.694;37.790;2023-12-20T04:06:07;11.70;81.92
75190;HTU21D;69198;44.694;37.790;2023-12-20T04:07:08;11.70;81.90
75190;HTU21D;69198;44.694;37.790;2023-12-20T04:08:09;11.69;81.94
75190;HTU21D;69198;44.694;37.790;2023-12-20T04:09:10;11.69;81.94
75190;HTU21D;69198;44.694;37.790;2023-12-20T04:10:12;11.70;81.94
75190;HTU21D;69198;44.694;37.790;2023-12-20T04:11:13;11.70;81.93
75190;HTU21D;69198;44.694;37.790;2023-12-20T04:12:14;11.70;81.90
75190;HTU21D;69198;44.694;37.790;2023-12-20T04:13:15;11.70;81.88
75190;HTU21D;69198;44.694;37.790;2023-12-20T04:14:16;11.69;81.81
75190;HTU21D;69198;44.694;37.790;2023-12-20T04:15:17;11.70;81.77
75190;HTU21D;69198;44.694;37.790;2023-12-20T04:16:18;11.70;81.76
75190;HTU21D;69198;44.694;37.790;2023-12-20T04:17:20;11.70;81.75
75190;HTU21D;69198;44.694;37.790;2023-12-20T04:18:23;11.69;81.81
75190;HTU21D;69198;44.694;37.790;2023-12-20T04:19:24;11.68;81.83
75190;HTU21D;69198;44.694;37.790;2023-12-20T04:20:25;11.68;81.84
75190;HTU21D;69198;44.694;37.790;2023-12-20T04:21:27;11.67;81.84
75190;HTU21D;69198;44.694;37.790;2023-12-20T04:22:28;11.66;81.85
75190;HTU21D;69198;44.694;37.790;2023-12-20T04:23:29;11.67;81.88
75190;HTU21D;69198;44.694;37.790;2023-12-20T04:24:30;11.66;81.87
75190;HTU21D;69198;44.694;37.790;2023-12-20T04:25:31;11.68;81.88
75190;HTU21D;69198;44.694;37.790;2023-12-20T04:26:32;11.68;81.87
75190;HTU21D;69198;44.694;37.790;2023-12-20T04:27:33;11.67;81.86
75190;HTU21D;69198;44.694;37.790;2023-12-20T04:28:34;11.66;81.82
75190;HTU21D;69198;44.694;37.790;2023-12-20T04:29:35;11.67;81.72
75190;HTU21D;69198;44.694;37.790;2023-12-20T04:30:43;11.70;81.61
75190;HTU21D;69198;44.694;37.790;2023-12-20T04:31:45;11.67;81.65
75190;HTU21D;69198;44.694;37.790;2023-12-20T04:32:46;11.67;81.62
75190;HTU21D;69198;44.694;37.790;2023-12-20T04:33:47;11.67;81.57
75190;HTU21D;69198;44.694;37.790;2023-12-20T04:34:54;11.67;81.54
75190;HTU21D;69198;44.694;37.790;2023-12-20T04:35:57;11.66;81.52
75190;HTU21D;69198;44.694;37.790;2023-12-20T04:37:00;11.64;81.54
75190;HTU21D;69198;44.694;37.790;2023-12-20T04:38:05;11.64;81.52
75190;HTU21D;69198;44.694;37.790;2023-12-20T04:39:06;11.64;81.46
75190;HTU21D;69198;44.694;37.790;2023-12-20T04:40:08;11.64;81.46
75190;HTU21D;69198;44.694;37.790;2023-12-20T04:41:11;11.66;81.41
75190;HTU21D;69198;44.694;37.790;2023-12-20T04:42:19;11.63;81.43
75190;HTU21D;69198;44.694;37.790;2023-12-20T04:43:21;11.60;81.42
75190;HTU21D;69198;44.694;37.790;2023-12-20T04:44:22;11.61;81.37
75190;HTU21D;69198;44.694;37.790;2023-12-20T04:45:24;11.60;81.39
75190;HTU21D;69198;44.694;37.790;2023-12-20T04:46:25;11.58;81.39
75190;HTU21D;69198;44.694;37.790;2023-12-20T04:47:26;11.56;81.39
75190;HTU21D;69198;44.694;37.790;2023-12-20T04:48:27;11.55;81.37
75190;HTU21D;69198;44.694;37.790;2023-12-20T04:49:29;11.54;81.37
75190;HTU21D;69198;44.694;37.790;2023-12-20T04:50:32;11.53;81.42
75190;HTU21D;69198;44.694;37.790;2023-12-20T04:51:34;11.51;81.46
75190;HTU21D;69198;44.694;37.790;2023-12-20T04:52:35;11.48;81.51
75190;HTU21D;69198;44.694;37.790;2023-12-20T04:53:36;11.47;81.53
75190;HTU21D;69198;44.694;37.790;2023-12-20T04:54:37;11.45;81.62
75190;HTU21D;69198;44.694;37.790;2023-12-20T04:55:43;11.43;81.65
75190;HTU21D;69198;44.694;37.790;2023-12-20T04:56:45;11.42;81.67
75190;HTU21D;69198;44.694;37.790;2023-12-20T04:57:46;11.38;81.72
75190;HTU21D;69198;44.694;37.790;2023-12-20T04:58:47;11.36;81.74
75190;HTU21D;69198;44.694;37.790;2023-12-20T04:59:49;11.32;81.80
75190;HTU21D;69198;44.694;37.790;2023-12-20T05:00:50;11.30;81.82
75190;HTU21D;69198;44.694;37.790;2023-12-20T05:01:51;11.31;81.76
75190;HTU21D;69198;44.694;37.790;2023-12-20T05:02:52;11.30;81.75
75190;HTU21D;69198;44.694;37.790;2023-12-20T05:03:55;11.27;81.73
75190;HTU21D;69198;44.694;37.790;2023-12-20T05:04:56;11.24;81.77
75190;HTU21D;69198;44.694;37.790;2023-12-20T05:05:57;11.23;81.78
75190;HTU21D;69198;44.694;37.790;2023-12-20T05:07:01;11.23;81.81
75190;HTU21D;69198;44.694;37.790;2023-12-20T05:08:02;11.20;81.84
75190;HTU21D;69198;44.694;37.790;2023-12-20T05:09:03;11.20;81.90
75190;HTU21D;69198;44.694;37.790;2023-12-20T05:10:05;11.18;81.93
75190;HTU21D;69198;44.694;37.790;2023-12-20T05:11:06;11.18;81.92
75190;HTU21D;69198;44.694;37.790;2023-12-20T05:12:08;11.19;81.91
75190;HTU21D;69198;44.694;37.790;2023-12-20T05:13:10;11.19;81.82
75190;HTU21D;69198;44.694;37.790;2023-12-20T05:14:11;11.22;81.77
75190;HTU21D;69198;44.694;37.790;2023-12-20T05:15:12;11.23;81.75
75190;HTU21D;69198;44.694;37.790;2023-12-20T05:16:13;11.19;81.80
75190;HTU21D;69198;44.694;37.790;2023-12-20T05:17:15;11.19;81.83
75190;HTU21D;69198;44.694;37.790;2023-12-20T05:18:16;11.18;81.87
75190;HTU21D;69198;44.694;37.790;2023-12-20T05:19:17;11.16;81.91
75190;HTU21D;69198;44.694;37.790;2023-12-20T05:20:18;11.16;81.96
75190;HTU21D;69198;44.694;37.790;2023-12-20T05:21:19;11.15;82.00
75190;HTU21D;69198;44.694;37.790;2023-12-20T05:22:20;11.17;82.04
75190;HTU21D;69198;44.694;37.790;2023-12-20T05:23:21;11.16;82.06
75190;HTU21D;69198;44.694;37.790;2023-12-20T05:24:24;11.16;82.10
75190;HTU21D;69198;44.694;37.790;2023-12-20T05:25:25;11.16;82.15
75190;HTU21D;69198;44.694;37.790;2023-12-20T05:26:27;11.16;82.13
75190;HTU21D;69198;44.694;37.790;2023-12-20T05:27:27;11.14;82.14
75190;HTU21D;69198;44.694;37.790;2023-12-20T05:28:28;11.13;82.16
75190;HTU21D;69198;44.694;37.790;2023-12-20T05:29:29;11.14;82.13
75190;HTU21D;69198;44.694;37.790;2023-12-20T05:30:31;11.12;82.13
75190;HTU21D;69198;44.694;37.790;2023-12-20T05:31:34;11.10;82.15
75190;HTU21D;69198;44.694;37.790;2023-12-20T05:32:36;11.10;82.14
75190;HTU21D;69198;44.694;37.790;2023-12-20T05:33:37;11.10;82.17
75190;HTU21D;69198;44.694;37.790;2023-12-20T05:34:38;11.11;82.07
75190;HTU21D;69198;44.694;37.790;2023-12-20T05:35:39;11.13;82.05
75190;HTU21D;69198;44.694;37.790;2023-12-20T05:36:40;11.12;82.04
75190;HTU21D;69198;44.694;37.790;2023-12-20T05:37:42;11.12;82.04
75190;HTU21D;69198;44.694;37.790;2023-12-20T05:38:43;11.11;81.95
75190;HTU21D;69198;44.694;37.790;2023-12-20T05:39:44;11.10;81.88
75190;HTU21D;69198;44.694;37.790;2023-12-20T05:40:45;11.10;81.83
75190;HTU21D;69198;44.694;37.790;2023-12-20T05:41:46;11.11;81.80
75190;HTU21D;69198;44.694;37.790;2023-12-20T05:42:48;11.09;81.77
75190;HTU21D;69198;44.694;37.790;2023-12-20T05:43:49;11.11;81.76
75190;HTU21D;69198;44.694;37.790;2023-12-20T05:44:50;11.11;81.71
75190;HTU21D;69198;44.694;37.790;2023-12-20T05:45:51;11.12;81.68
75190;HTU21D;69198;44.694;37.790;2023-12-20T05:46:52;11.16;81.53
75190;HTU21D;69198;44.694;37.790;2023-12-20T05:47:53;11.27;81.65
75190;HTU21D;69198;44.694;37.790;2023-12-20T05:48:55;11.43;81.62
75190;HTU21D;69198;44.694;37.790;2023-12-20T05:49:56;11.63;81.29
75190;HTU21D;69198;44.694;37.790;2023-12-20T05:50:57;11.85;81.04
75190;HTU21D;69198;44.694;37.790;2023-12-20T05:52:01;12.15;80.79
75190;HTU21D;69198;44.694;37.790;2023-12-20T05:53:02;12.46;80.00
75190;HTU21D;69198;44.694;37.790;2023-12-20T05:54:03;12.71;79.30
75190;HTU21D;69198;44.694;37.790;2023-12-20T05:55:05;12.94;78.85
75190;HTU21D;69198;44.694;37.790;2023-12-20T05:56:06;13.20;78.52
75190;HTU21D;69198;44.694;37.790;2023-12-20T05:57:07;13.44;77.72
75190;HTU21D;69198;44.694;37.790;2023-12-20T05:58:08;13.69;77.13
75190;HTU21D;69198;44.694;37.790;2023-12-20T05:59:09;13.86;76.34
75190;HTU21D;69198;44.694;37.790;2023-12-20T06:00:11;14.01;75.87
75190;HTU21D;69198;44.694;37.790;2023-12-20T06:01:16;14.14;75.41
75190;HTU21D;69198;44.694;37.790;2023-12-20T06:02:20;14.27;74.99
75190;HTU21D;69198;44.694;37.790;2023-12-20T06:03:21;14.42;74.70
75190;HTU21D;69198;44.694;37.790;2023-12-20T06:04:22;14.57;74.40
75190;HTU21D;69198;44.694;37.790;2023-12-20T06:05:23;14.70;73.60
75190;HTU21D;69198;44.694;37.790;2023-12-20T06:06:24;14.79;73.19
75190;HTU21D;69198;44.694;37.790;2023-12-20T06:07:25;14.85;73.06
75190;HTU21D;69198;44.694;37.790;2023-12-20T06:08:26;14.93;72.61
75190;HTU21D;69198;44.694;37.790;2023-12-20T06:09:27;14.99;71.73
75190;HTU21D;69198;44.694;37.790;2023-12-20T06:10:28;15.06;71.61
75190;HTU21D;69198;44.694;37.790;2023-12-20T06:11:30;15.13;71.35
75190;HTU21D;69198;44.694;37.790;2023-12-20T06:12:31;15.23;70.55
75190;HTU21D;69198;44.694;37.790;2023-12-20T06:13:34;15.27;70.21
75190;HTU21D;69198;44.694;37.790;2023-12-20T06:14:36;15.32;70.19
75190;HTU21D;69198;44.694;37.790;2023-12-20T06:15:37;15.43;70.03
75190;HTU21D;69198;44.694;37.790;2023-12-20T06:16:38;15.52;69.34